sensor_id;sensor_type;location;lat;lon;timestamp;P1;durP1;ratioP1;P2;durP2;ratioP2
16667;SDS011;8447;52.630;4.734;2024-03-08T00:00:55;19.57;;;10.40;;
16667;SDS011;8447;52.630;4.734;2024-03-08T00:03:24;18.33;;;10.93;;
16667;SDS011;8447;52.630;4.734;2024-03-08T00:05:50;17.30;;;10.00;;
16667;SDS011;8447;52.630;4.734;2024-03-08T00:08:16;14.40;;;9.57;;
16667;SDS011;8447;52.630;4.734;2024-03-08T00:10:43;17.80;;;11.27;;
16667;SDS011;8447;52.630;4.734;2024-03-08T00:13:09;16.63;;;11.10;;
16667;SDS011;8447;52.630;4.734;2024-03-08T00:15:36;15.63;;;9.60;;
16667;SDS011;8447;52.630;4.734;2024-03-08T00:18:02;19.43;;;10.83;;
16667;SDS011;8447;52.630;4.734;2024-03-08T00:20:30;15.87;;;9.97;;
16667;SDS011;8447;52.630;4.734;2024-03-08T00:22:56;16.20;;;10.73;;
16667;SDS011;8447;52.630;4.734;2024-03-08T00:25:23;16.47;;;10.07;;
16667;SDS011;8447;52.630;4.734;2024-03-08T00:27:49;14.93;;;9.77;;
16667;SDS011;8447;52.630;4.734;2024-03-08T00:30:17;18.43;;;8.40;;
16667;SDS011;8447;52.630;4.734;2024-03-08T00:32:44;18.47;;;10.13;;
16667;SDS011;8447;52.630;4.734;2024-03-08T00:35:11;17.20;;;9.33;;
16667;SDS011;8447;52.630;4.734;2024-03-08T00:37:39;14.07;;;9.57;;
16667;SDS011;8447;52.630;4.734;2024-03-08T00:40:05;15.73;;;10.23;;
16667;SDS011;8447;52.630;4.734;2024-03-08T00:42:34;15.27;;;9.40;;
16667;SDS011;8447;52.630;4.734;2024-03-08T00:45:00;17.63;;;9.17;;
16667;SDS011;8447;52.630;4.734;2024-03-08T00:47:28;16.40;;;9.80;;
16667;SDS011;8447;52.630;4.734;2024-03-08T00:49:54;13.10;;;9.00;;
16667;SDS011;8447;52.630;4.734;2024-03-08T00:52:21;16.20;;;9.17;;
16667;SDS011;8447;52.630;4.734;2024-03-08T00:54:50;17.17;;;9.87;;
16667;SDS011;8447;52.630;4.734;2024-03-08T00:57:16;15.47;;;9.60;;
16667;SDS011;8447;52.630;4.734;2024-03-08T00:59:43;16.33;;;10.97;;
16667;SDS011;8447;52.630;4.734;2024-03-08T01:02:09;17.40;;;9.53;;
16667;SDS011;8447;52.630;4.734;2024-03-08T01:04:36;16.87;;;9.73;;
16667;SDS011;8447;52.630;4.734;2024-03-08T01:07:04;17.73;;;9.87;;
16667;SDS011;8447;52.630;4.734;2024-03-08T01:09:30;14.77;;;10.47;;
16667;SDS011;8447;52.630;4.734;2024-03-08T01:11:58;11.60;;;8.63;;
16667;SDS011;8447;52.630;4.734;2024-03-08T01:14:26;12.30;;;8.33;;
16667;SDS011;8447;52.630;4.734;2024-03-08T01:16:53;9.90;;;7.27;;
16667;SDS011;8447;52.630;4.734;2024-03-08T01:19:20;16.10;;;10.10;;
16667;SDS011;8447;52.630;4.734;2024-03-08T01:21:47;14.47;;;8.53;;
16667;SDS011;8447;52.630;4.734;2024-03-08T01:24:13;16.87;;;9.90;;
16667;SDS011;8447;52.630;4.734;2024-03-08T01:26:39;13.57;;;9.10;;
16667;SDS011;8447;52.630;4.734;2024-03-08T01:29:07;12.70;;;8.73;;
16667;SDS011;8447;52.630;4.734;2024-03-08T01:31:34;16.97;;;10.33;;
16667;SDS011;8447;52.630;4.734;2024-03-08T01:34:01;14.57;;;9.37;;
16667;SDS011;8447;52.630;4.734;2024-03-08T01:36:28;13.53;;;8.67;;
16667;SDS011;8447;52.630;4.734;2024-03-08T01:38:54;14.23;;;9.43;;
16667;SDS011;8447;52.630;4.734;2024-03-08T01:41:21;12.20;;;7.50;;
16667;SDS011;8447;52.630;4.734;2024-03-08T01:43:47;13.77;;;9.67;;
16667;SDS011;8447;52.630;4.734;2024-03-08T01:46:17;13.87;;;8.77;;
16667;SDS011;8447;52.630;4.734;2024-03-08T01:48:44;16.93;;;9.97;;
16667;SDS011;8447;52.630;4.734;2024-03-08T01:51:11;14.80;;;9.57;;
16667;SDS011;8447;52.630;4.734;2024-03-08T01:53:40;15.67;;;9.97;;
16667;SDS011;8447;52.630;4.734;2024-03-08T01:56:07;13.23;;;8.53;;
16667;SDS011;8447;52.630;4.734;2024-03-08T01:58:34;18.33;;;9.77;;
16667;SDS011;8447;52.630;4.734;2024-03-08T02:01:01;13.17;;;9.17;;
16667;SDS011;8447;52.630;4.734;2024-03-08T02:03:29;15.87;;;9.63;;
16667;SDS011;8447;52.630;4.734;2024-03-08T02:05:56;19.27;;;10.97;;
16667;SDS011;8447;52.630;4.734;2024-03-08T02:08:24;14.07;;;8.50;;
16667;SDS011;8447;52.630;4.734;2024-03-08T02:10:50;14.90;;;9.93;;
16667;SDS011;8447;52.630;4.734;2024-03-08T02:13:17;19.80;;;9.60;;
16667;SDS011;8447;52.630;4.734;2024-03-08T02:15:53;17.17;;;9.60;;
16667;SDS011;8447;52.630;4.734;2024-03-08T02:18:19;13.43;;;9.50;;
16667;SDS011;8447;52.630;4.734;2024-03-08T02:20:47;15.00;;;10.03;;
16667;SDS011;8447;52.630;4.734;2024-03-08T02:23:14;17.03;;;9.53;;
16667;SDS011;8447;52.630;4.734;2024-03-08T02:25:40;15.67;;;10.00;;
16667;SDS011;8447;52.630;4.734;2024-03-08T02:28:08;14.63;;;10.10;;
16667;SDS011;8447;52.630;4.734;2024-03-08T02:30:35;15.50;;;10.00;;
16667;SDS011;8447;52.630;4.734;2024-03-08T02:33:01;14.53;;;10.33;;
16667;SDS011;8447;52.630;4.734;2024-03-08T02:35:29;18.27;;;10.77;;
16667;SDS011;8447;52.630;4.734;2024-03-08T02:37:56;15.57;;;11.70;;
16667;SDS011;8447;52.630;4.734;2024-03-08T02:40:23;15.20;;;9.37;;
16667;SDS011;8447;52.630;4.734;2024-03-08T02:42:49;13.80;;;10.10;;
16667;SDS011;8447;52.630;4.734;2024-03-08T02:45:16;14.13;;;9.63;;
16667;SDS011;8447;52.630;4.734;2024-03-08T02:47:42;14.93;;;12.20;;
16667;SDS011;8447;52.630;4.734;2024-03-08T02:50:09;16.63;;;10.23;;
16667;SDS011;8447;52.630;4.734;2024-03-08T02:52:36;12.20;;;9.70;;
16667;SDS011;8447;52.630;4.734;2024-03-08T02:55:05;13.37;;;10.20;;
16667;SDS011;8447;52.630;4.734;2024-03-08T02:57:32;14.13;;;9.67;;
16667;SDS011;8447;52.630;4.734;2024-03-08T02:59:58;15.53;;;10.53;;
16667;SDS011;8447;52.630;4.734;2024-03-08T03:02:25;18.90;;;9.80;;
16667;SDS011;8447;52.630;4.734;2024-03-08T03:04:52;16.27;;;10.17;;
16667;SDS011;8447;52.630;4.734;2024-03-08T03:07:18;13.10;;;9.10;;
16667;SDS011;8447;52.630;4.734;2024-03-08T03:09:45;15.17;;;11.30;;
16667;SDS011;8447;52.630;4.734;2024-03-08T03:12:13;16.13;;;10.57;;
16667;SDS011;8447;52.630;4.734;2024-03-08T03:14:39;16.47;;;10.77;;
16667;SDS011;8447;52.630;4.734;2024-03-08T03:17:06;14.43;;;8.70;;
16667;SDS011;8447;52.630;4.734;2024-03-08T03:19:34;12.77;;;10.20;;
16667;SDS011;8447;52.630;4.734;2024-03-08T03:22:01;15.80;;;11.53;;
16667;SDS011;8447;52.630;4.734;2024-03-08T03:24:28;17.10;;;12.20;;
16667;SDS011;8447;52.630;4.734;2024-03-08T03:26:54;15.27;;;10.30;;
16667;SDS011;8447;52.630;4.734;2024-03-08T03:29:22;15.63;;;10.80;;
16667;SDS011;8447;52.630;4.734;2024-03-08T03:31:50;14.83;;;10.63;;
16667;SDS011;8447;52.630;4.734;2024-03-08T03:34:17;17.60;;;10.57;;
16667;SDS011;8447;52.630;4.734;2024-03-08T03:36:44;16.20;;;9.00;;
16667;SDS011;8447;52.630;4.734;2024-03-08T03:39:12;15.10;;;9.93;;
16667;SDS011;8447;52.630;4.734;2024-03-08T03:41:41;13.47;;;10.50;;
16667;SDS011;8447;52.630;4.734;2024-03-08T03:44:09;15.17;;;10.27;;
16667;SDS011;8447;52.630;4.734;2024-03-08T03:46:37;14.13;;;10.37;;
16667;SDS011;8447;52.630;4.734;2024-03-08T03:49:04;17.50;;;10.90;;
16667;SDS011;8447;52.630;4.734;2024-03-08T03:51:30;13.83;;;10.80;;
16667;SDS011;8447;52.630;4.734;2024-03-08T03:53:56;17.57;;;11.73;;
16667;SDS011;8447;52.630;4.734;2024-03-08T03:56:25;14.47;;;9.40;;
16667;SDS011;8447;52.630;4.734;2024-03-08T03:58:51;15.53;;;10.30;;
16667;SDS011;8447;52.630;4.734;2024-03-08T04:01:17;16.90;;;10.57;;
16667;SDS011;8447;52.630;4.734;2024-03-08T04:03:45;11.97;;;9.63;;
16667;SDS011;8447;52.630;4.734;2024-03-08T04:06:12;17.03;;;11.30;;
16667;SDS011;8447;52.630;4.734;2024-03-08T04:08:39;16.43;;;11.03;;
16667;SDS011;8447;52.630;4.734;2024-03-08T04:11:06;18.53;;;11.73;;
16667;SDS011;8447;52.630;4.734;2024-03-08T04:13:33;18.73;;;11.80;;
16667;SDS011;8447;52.630;4.734;2024-03-08T04:16:01;17.83;;;9.53;;
16667;SDS011;8447;52.630;4.734;2024-03-08T04:18:27;19.23;;;12.30;;
16667;SDS011;8447;52.630;4.734;2024-03-08T04:20:54;12.73;;;7.20;;
16667;SDS011;8447;52.630;4.734;2024-03-08T04:23:21;16.20;;;11.47;;
16667;SDS011;8447;52.630;4.734;2024-03-08T04:25:47;16.50;;;11.87;;
16667;SDS011;8447;52.630;4.734;2024-03-08T04:28:13;17.20;;;10.50;;
16667;SDS011;8447;52.630;4.734;2024-03-08T04:30:40;16.97;;;11.70;;
16667;SDS011;8447;52.630;4.734;2024-03-08T04:33:11;16.03;;;10.23;;
16667;SDS011;8447;52.630;4.734;2024-03-08T04:35:41;15.07;;;10.97;;
16667;SDS011;8447;52.630;4.734;2024-03-08T04:38:12;20.00;;;10.70;;
16667;SDS011;8447;52.630;4.734;2024-03-08T04:40:38;17.63;;;11.80;;
16667;SDS011;8447;52.630;4.734;2024-03-08T04:43:05;15.70;;;9.27;;
16667;SDS011;8447;52.630;4.734;2024-03-08T04:45:33;14.40;;;10.50;;
16667;SDS011;8447;52.630;4.734;2024-03-08T04:47:59;16.03;;;10.77;;
16667;SDS011;8447;52.630;4.734;2024-03-08T04:50:27;19.10;;;11.10;;
16667;SDS011;8447;52.630;4.734;2024-03-08T04:52:54;13.73;;;8.77;;
16667;SDS011;8447;52.630;4.734;2024-03-08T04:55:22;14.53;;;10.27;;
16667;SDS011;8447;52.630;4.734;2024-03-08T04:57:48;21.67;;;11.83;;
16667;SDS011;8447;52.630;4.734;2024-03-08T05:00:15;16.80;;;9.97;;
16667;SDS011;8447;52.630;4.734;2024-03-08T05:02:42;15.53;;;10.80;;
16667;SDS011;8447;52.630;4.734;2024-03-08T05:05:09;14.63;;;11.00;;
16667;SDS011;8447;52.630;4.734;2024-03-08T05:07:37;16.97;;;11.57;;
16667;SDS011;8447;52.630;4.734;2024-03-08T05:10:04;15.27;;;10.30;;
16667;SDS011;8447;52.630;4.734;2024-03-08T05:12:33;15.13;;;10.67;;
16667;SDS011;8447;52.630;4.734;2024-03-08T05:14:59;17.63;;;11.13;;
16667;SDS011;8447;52.630;4.734;2024-03-08T05:17:26;17.33;;;11.10;;
16667;SDS011;8447;52.630;4.734;2024-03-08T05:19:53;17.13;;;11.67;;
16667;SDS011;8447;52.630;4.734;2024-03-08T05:22:19;14.10;;;10.03;;
16667;SDS011;8447;52.630;4.734;2024-03-08T05:24:45;21.17;;;11.73;;
16667;SDS011;8447;52.630;4.734;2024-03-08T05:27:12;16.10;;;11.13;;
16667;SDS011;8447;52.630;4.734;2024-03-08T05:29:40;15.67;;;10.93;;
16667;SDS011;8447;52.630;4.734;2024-03-08T05:32:06;17.27;;;11.37;;
16667;SDS011;8447;52.630;4.734;2024-03-08T05:34:33;14.73;;;9.87;;
16667;SDS011;8447;52.630;4.734;2024-03-08T05:36:59;18.87;;;12.23;;
16667;SDS011;8447;52.630;4.734;2024-03-08T05:39:26;18.50;;;12.13;;
16667;SDS011;8447;52.630;4.734;2024-03-08T05:41:53;20.13;;;12.93;;
16667;SDS011;8447;52.630;4.734;2024-03-08T05:44:20;16.90;;;12.23;;
16667;SDS011;8447;52.630;4.734;2024-03-08T05:46:50;18.67;;;12.83;;
16667;SDS011;8447;52.630;4.734;2024-03-08T05:49:16;18.50;;;12.60;;
16667;SDS011;8447;52.630;4.734;2024-03-08T05:51:43;20.70;;;12.17;;
16667;SDS011;8447;52.630;4.734;2024-03-08T05:54:10;15.53;;;11.07;;
16667;SDS011;8447;52.630;4.734;2024-03-08T05:56:37;19.37;;;12.77;;
16667;SDS011;8447;52.630;4.734;2024-03-08T05:59:04;18.53;;;12.30;;
16667;SDS011;8447;52.630;4.734;2024-03-08T06:01:30;17.83;;;11.40;;
16667;SDS011;8447;52.630;4.734;2024-03-08T06:03:59;18.07;;;10.40;;
16667;SDS011;8447;52.630;4.734;2024-03-08T06:06:26;16.93;;;11.93;;
16667;SDS011;8447;52.630;4.734;2024-03-08T06:08:52;16.33;;;11.47;;
16667;SDS011;8447;52.630;4.734;2024-03-08T06:11:21;16.23;;;12.27;;
16667;SDS011;8447;52.630;4.734;2024-03-08T06:13:48;14.70;;;10.00;;
16667;SDS011;8447;52.630;4.734;2024-03-08T06:16:15;18.43;;;11.87;;
16667;SDS011;8447;52.630;4.734;2024-03-08T06:18:41;17.30;;;11.43;;
16667;SDS011;8447;52.630;4.734;2024-03-08T06:21:09;17.70;;;10.53;;
16667;SDS011;8447;52.630;4.734;2024-03-08T06:23:36;19.47;;;12.23;;
16667;SDS011;8447;52.630;4.734;2024-03-08T06:26:03;19.23;;;11.73;;
16667;SDS011;8447;52.630;4.734;2024-03-08T06:28:30;20.70;;;13.33;;
16667;SDS011;8447;52.630;4.734;2024-03-08T06:30:57;16.13;;;12.03;;
16667;SDS011;8447;52.630;4.734;2024-03-08T06:33:24;18.67;;;11.70;;
16667;SDS011;8447;52.630;4.734;2024-03-08T06:35:51;19.63;;;12.50;;
16667;SDS011;8447;52.630;4.734;2024-03-08T06:38:19;17.03;;;12.30;;
16667;SDS011;8447;52.630;4.734;2024-03-08T06:40:45;16.93;;;12.20;;
16667;SDS011;8447;52.630;4.734;2024-03-08T06:43:14;18.83;;;13.00;;
16667;SDS011;8447;52.630;4.734;2024-03-08T06:45:41;14.80;;;10.83;;
16667;SDS011;8447;52.630;4.734;2024-03-08T06:48:07;18.67;;;12.60;;
16667;SDS011;8447;52.630;4.734;2024-03-08T06:50:35;15.83;;;12.07;;
16667;SDS011;8447;52.630;4.734;2024-03-08T06:53:02;15.00;;;11.30;;
16667;SDS011;8447;52.630;4.734;2024-03-08T06:55:29;15.53;;;10.53;;
16667;SDS011;8447;52.630;4.734;2024-03-08T06:57:56;15.70;;;12.53;;
16667;SDS011;8447;52.630;4.734;2024-03-08T07:00:23;16.77;;;12.90;;
16667;SDS011;8447;52.630;4.734;2024-03-08T07:02:52;17.97;;;12.03;;
16667;SDS011;8447;52.630;4.734;2024-03-08T07:05:18;18.57;;;12.37;;
16667;SDS011;8447;52.630;4.734;2024-03-08T07:07:45;17.47;;;11.67;;
16667;SDS011;8447;52.630;4.734;2024-03-08T07:10:13;20.17;;;11.80;;
16667;SDS011;8447;52.630;4.734;2024-03-08T07:12:42;17.03;;;11.47;;
16667;SDS011;8447;52.630;4.734;2024-03-08T07:15:08;17.87;;;11.27;;
16667;SDS011;8447;52.630;4.734;2024-03-08T07:17:38;19.33;;;12.77;;
16667;SDS011;8447;52.630;4.734;2024-03-08T07:20:05;20.63;;;13.47;;
16667;SDS011;8447;52.630;4.734;2024-03-08T07:22:36;18.67;;;11.83;;
16667;SDS011;8447;52.630;4.734;2024-03-08T07:25:04;17.73;;;11.30;;
16667;SDS011;8447;52.630;4.734;2024-03-08T07:27:46;14.43;;;11.63;;
16667;SDS011;8447;52.630;4.734;2024-03-08T07:30:12;20.27;;;13.27;;
16667;SDS011;8447;52.630;4.734;2024-03-08T07:32:59;18.47;;;13.47;;
16667;SDS011;8447;52.630;4.734;2024-03-08T07:35:27;17.93;;;12.93;;
16667;SDS011;8447;52.630;4.734;2024-03-08T07:37:53;16.07;;;11.80;;
16667;SDS011;8447;52.630;4.734;2024-03-08T07:40:20;20.83;;;14.53;;
16667;SDS011;8447;52.630;4.734;2024-03-08T07:42:49;19.47;;;14.20;;
16667;SDS011;8447;52.630;4.734;2024-03-08T07:45:16;19.30;;;14.63;;
16667;SDS011;8447;52.630;4.734;2024-03-08T07:47:42;18.60;;;15.23;;
16667;SDS011;8447;52.630;4.734;2024-03-08T07:50:09;16.70;;;12.77;;
16667;SDS011;8447;52.630;4.734;2024-03-08T07:52:36;18.90;;;13.40;;
16667;SDS011;8447;52.630;4.734;2024-03-08T07:55:02;17.00;;;12.83;;
16667;SDS011;8447;52.630;4.734;2024-03-08T07:57:30;30.87;;;13.10;;
16667;SDS011;8447;52.630;4.734;2024-03-08T07:59:58;18.37;;;13.70;;
16667;SDS011;8447;52.630;4.734;2024-03-08T08:02:25;17.03;;;13.60;;
16667;SDS011;8447;52.630;4.734;2024-03-08T08:04:51;18.70;;;15.33;;
16667;SDS011;8447;52.630;4.734;2024-03-08T08:07:17;14.93;;;11.47;;
16667;SDS011;8447;52.630;4.734;2024-03-08T08:09:44;16.30;;;13.90;;
16667;SDS011;8447;52.630;4.734;2024-03-08T08:12:10;19.20;;;12.93;;
16667;SDS011;8447;52.630;4.734;2024-03-08T08:14:37;16.93;;;14.10;;
16667;SDS011;8447;52.630;4.734;2024-03-08T08:17:05;17.13;;;12.13;;
16667;SDS011;8447;52.630;4.734;2024-03-08T08:19:33;19.23;;;13.37;;
16667;SDS011;8447;52.630;4.734;2024-03-08T08:22:00;17.57;;;14.70;;
16667;SDS011;8447;52.630;4.734;2024-03-08T08:24:27;16.63;;;14.53;;
16667;SDS011;8447;52.630;4.734;2024-03-08T08:26:53;18.53;;;12.20;;
16667;SDS011;8447;52.630;4.734;2024-03-08T08:29:21;21.73;;;13.80;;
16667;SDS011;8447;52.630;4.734;2024-03-08T08:31:47;18.23;;;13.67;;
16667;SDS011;8447;52.630;4.734;2024-03-08T08:34:16;16.33;;;11.47;;
16667;SDS011;8447;52.630;4.734;2024-03-08T08:36:44;18.70;;;13.23;;
16667;SDS011;8447;52.630;4.734;2024-03-08T08:39:12;18.73;;;13.27;;
16667;SDS011;8447;52.630;4.734;2024-03-08T08:41:38;16.50;;;11.97;;
16667;SDS011;8447;52.630;4.734;2024-03-08T08:44:06;18.47;;;13.63;;
16667;SDS011;8447;52.630;4.734;2024-03-08T08:46:35;17.97;;;14.77;;
16667;SDS011;8447;52.630;4.734;2024-03-08T08:49:01;19.00;;;15.37;;
16667;SDS011;8447;52.630;4.734;2024-03-08T08:51:29;16.60;;;14.13;;
16667;SDS011;8447;52.630;4.734;2024-03-08T08:53:58;17.90;;;14.20;;
16667;SDS011;8447;52.630;4.734;2024-03-08T08:56:25;18.03;;;15.10;;
16667;SDS011;8447;52.630;4.734;2024-03-08T08:58:51;15.67;;;12.87;;
16667;SDS011;8447;52.630;4.734;2024-03-08T09:01:19;16.70;;;12.83;;
16667;SDS011;8447;52.630;4.734;2024-03-08T09:03:46;17.00;;;13.43;;
16667;SDS011;8447;52.630;4.734;2024-03-08T09:06:12;20.27;;;13.37;;
16667;SDS011;8447;52.630;4.734;2024-03-08T09:08:40;19.17;;;14.63;;
16667;SDS011;8447;52.630;4.734;2024-03-08T09:11:07;17.73;;;14.20;;
16667;SDS011;8447;52.630;4.734;2024-03-08T09:13:36;17.47;;;12.97;;
16667;SDS011;8447;52.630;4.734;2024-03-08T09:16:03;16.90;;;11.90;;
16667;SDS011;8447;52.630;4.734;2024-03-08T09:18:30;14.93;;;12.13;;
16667;SDS011;8447;52.630;4.734;2024-03-08T09:20:57;19.00;;;13.50;;
16667;SDS011;8447;52.630;4.734;2024-03-08T09:23:23;16.80;;;13.50;;
16667;SDS011;8447;52.630;4.734;2024-03-08T09:25:56;17.03;;;13.40;;
16667;SDS011;8447;52.630;4.734;2024-03-08T09:28:23;16.63;;;13.47;;
16667;SDS011;8447;52.630;4.734;2024-03-08T09:30:49;15.10;;;12.10;;
16667;SDS011;8447;52.630;4.734;2024-03-08T09:33:16;17.37;;;13.80;;
16667;SDS011;8447;52.630;4.734;2024-03-08T09:35:44;18.70;;;12.57;;
16667;SDS011;8447;52.630;4.734;2024-03-08T09:38:12;16.77;;;13.00;;
16667;SDS011;8447;52.630;4.734;2024-03-08T09:40:38;18.27;;;14.40;;
16667;SDS011;8447;52.630;4.734;2024-03-08T09:43:06;19.03;;;13.70;;
16667;SDS011;8447;52.630;4.734;2024-03-08T09:45:35;14.43;;;12.67;;
16667;SDS011;8447;52.630;4.734;2024-03-08T09:48:02;16.10;;;13.70;;
16667;SDS011;8447;52.630;4.734;2024-03-08T09:50:28;18.27;;;13.37;;
16667;SDS011;8447;52.630;4.734;2024-03-08T09:52:55;16.00;;;13.00;;
16667;SDS011;8447;52.630;4.734;2024-03-08T09:55:22;15.23;;;13.00;;
16667;SDS011;8447;52.630;4.734;2024-03-08T09:57:48;19.90;;;13.60;;
16667;SDS011;8447;52.630;4.734;2024-03-08T10:00:30;15.70;;;12.17;;
16667;SDS011;8447;52.630;4.734;2024-03-08T10:03:00;16.53;;;12.97;;
16667;SDS011;8447;52.630;4.734;2024-03-08T10:05:26;17.63;;;13.30;;
16667;SDS011;8447;52.630;4.734;2024-03-08T10:07:53;15.90;;;12.80;;
16667;SDS011;8447;52.630;4.734;2024-03-08T10:10:19;16.40;;;12.47;;
16667;SDS011;8447;52.630;4.734;2024-03-08T10:12:46;16.30;;;12.83;;
16667;SDS011;8447;52.630;4.734;2024-03-08T10:15:15;15.40;;;13.13;;
16667;SDS011;8447;52.630;4.734;2024-03-08T10:17:43;17.67;;;14.23;;
16667;SDS011;8447;52.630;4.734;2024-03-08T10:20:13;16.40;;;13.10;;
16667;SDS011;8447;52.630;4.734;2024-03-08T10:22:40;14.93;;;13.03;;
16667;SDS011;8447;52.630;4.734;2024-03-08T10:25:07;13.87;;;12.23;;
16667;SDS011;8447;52.630;4.734;2024-03-08T10:27:35;15.40;;;12.57;;
16667;SDS011;8447;52.630;4.734;2024-03-08T10:30:02;16.60;;;13.83;;
16667;SDS011;8447;52.630;4.734;2024-03-08T10:32:31;15.30;;;12.50;;
16667;SDS011;8447;52.630;4.734;2024-03-08T10:34:59;12.27;;;10.97;;
16667;SDS011;8447;52.630;4.734;2024-03-08T10:37:25;16.30;;;13.40;;
16667;SDS011;8447;52.630;4.734;2024-03-08T10:39:57;16.13;;;14.52;;
16667;SDS011;8447;52.630;4.734;2024-03-08T10:42:24;14.18;;;12.68;;
16667;SDS011;8447;52.630;4.734;2024-03-08T10:44:58;15.88;;;13.98;;
16667;SDS011;8447;52.630;4.734;2024-03-08T10:47:26;17.20;;;14.70;;
16667;SDS011;8447;52.630;4.734;2024-03-08T10:49:55;16.08;;;14.55;;
16667;SDS011;8447;52.630;4.734;2024-03-08T10:52:31;12.90;;;11.52;;
16667;SDS011;8447;52.630;4.734;2024-03-08T10:55:02;13.18;;;11.73;;
16667;SDS011;8447;52.630;4.734;2024-03-08T10:57:28;16.10;;;14.30;;
16667;SDS011;8447;52.630;4.734;2024-03-08T10:59:56;14.60;;;12.85;;
16667;SDS011;8447;52.630;4.734;2024-03-08T11:02:23;15.40;;;13.07;;
16667;SDS011;8447;52.630;4.734;2024-03-08T11:04:52;13.95;;;12.45;;
16667;SDS011;8447;52.630;4.734;2024-03-08T11:07:21;14.65;;;13.15;;
16667;SDS011;8447;52.630;4.734;2024-03-08T11:09:49;15.90;;;12.88;;
16667;SDS011;8447;52.630;4.734;2024-03-08T11:12:19;14.93;;;13.25;;
16667;SDS011;8447;52.630;4.734;2024-03-08T11:14:45;14.90;;;12.38;;
16667;SDS011;8447;52.630;4.734;2024-03-08T11:17:15;15.48;;;13.52;;
16667;SDS011;8447;52.630;4.734;2024-03-08T11:19:46;13.45;;;12.05;;
16667;SDS011;8447;52.630;4.734;2024-03-08T11:22:20;13.82;;;12.25;;
16667;SDS011;8447;52.630;4.734;2024-03-08T11:24:48;14.27;;;12.88;;
16667;SDS011;8447;52.630;4.734;2024-03-08T11:27:14;13.68;;;12.25;;
16667;SDS011;8447;52.630;4.734;2024-03-08T11:29:41;15.32;;;12.45;;
16667;SDS011;8447;52.630;4.734;2024-03-08T11:32:08;15.20;;;13.70;;
16667;SDS011;8447;52.630;4.734;2024-03-08T11:34:35;14.30;;;12.88;;
16667;SDS011;8447;52.630;4.734;2024-03-08T11:37:03;14.73;;;13.30;;
16667;SDS011;8447;52.630;4.734;2024-03-08T11:39:30;15.57;;;13.20;;
16667;SDS011;8447;52.630;4.734;2024-03-08T11:41:58;14.05;;;12.60;;
16667;SDS011;8447;52.630;4.734;2024-03-08T11:44:26;14.60;;;13.23;;
16667;SDS011;8447;52.630;4.734;2024-03-08T11:46:53;14.68;;;12.82;;
16667;SDS011;8447;52.630;4.734;2024-03-08T11:49:19;14.00;;;12.65;;
16667;SDS011;8447;52.630;4.734;2024-03-08T11:51:45;15.40;;;12.73;;
16667;SDS011;8447;52.630;4.734;2024-03-08T11:54:12;14.27;;;12.45;;
16667;SDS011;8447;52.630;4.734;2024-03-08T11:56:40;13.95;;;12.52;;
16667;SDS011;8447;52.630;4.734;2024-03-08T11:59:10;13.10;;;11.80;;
16667;SDS011;8447;52.630;4.734;2024-03-08T12:01:37;13.82;;;12.40;;
16667;SDS011;8447;52.630;4.734;2024-03-08T12:04:05;14.68;;;12.60;;
16667;SDS011;8447;52.630;4.734;2024-03-08T12:06:36;15.48;;;13.88;;
16667;SDS011;8447;52.630;4.734;2024-03-08T12:09:04;16.77;;;13.98;;
16667;SDS011;8447;52.630;4.734;2024-03-08T12:11:30;13.35;;;12.05;;
16667;SDS011;8447;52.630;4.734;2024-03-08T12:13:57;14.27;;;12.77;;
16667;SDS011;8447;52.630;4.734;2024-03-08T12:16:25;15.75;;;13.07;;
16667;SDS011;8447;52.630;4.734;2024-03-08T12:18:52;15.98;;;13.00;;
16667;SDS011;8447;52.630;4.734;2024-03-08T12:21:19;13.75;;;12.32;;
16667;SDS011;8447;52.630;4.734;2024-03-08T12:23:47;15.38;;;13.88;;
16667;SDS011;8447;52.630;4.734;2024-03-08T12:26:17;14.05;;;12.65;;
16667;SDS011;8447;52.630;4.734;2024-03-08T12:28:44;15.23;;;13.63;;
16667;SDS011;8447;52.630;4.734;2024-03-08T12:31:13;15.25;;;13.65;;
16667;SDS011;8447;52.630;4.734;2024-03-08T12:33:48;14.57;;;13.02;;
16667;SDS011;8447;52.630;4.734;2024-03-08T12:36:15;14.38;;;12.98;;
16667;SDS011;8447;52.630;4.734;2024-03-08T12:38:43;13.85;;;12.27;;
16667;SDS011;8447;52.630;4.734;2024-03-08T12:41:12;12.90;;;11.60;;
16667;SDS011;8447;52.630;4.734;2024-03-08T12:43:39;14.18;;;11.50;;
16667;SDS011;8447;52.630;4.734;2024-03-08T12:46:05;13.20;;;11.90;;
16667;SDS011;8447;52.630;4.734;2024-03-08T12:48:34;13.45;;;11.80;;
16667;SDS011;8447;52.630;4.734;2024-03-08T12:51:02;13.68;;;12.07;;
16667;SDS011;8447;52.630;4.734;2024-03-08T12:53:28;13.73;;;12.32;;
16667;SDS011;8447;52.630;4.734;2024-03-08T12:55:55;13.20;;;11.77;;
16667;SDS011;8447;52.630;4.734;2024-03-08T12:58:22;13.13;;;11.55;;
16667;SDS011;8447;52.630;4.734;2024-03-08T13:00:48;15.82;;;12.68;;
16667;SDS011;8447;52.630;4.734;2024-03-08T13:03:15;14.20;;;12.68;;
16667;SDS011;8447;52.630;4.734;2024-03-08T13:05:41;15.02;;;12.80;;
16667;SDS011;8447;52.630;4.734;2024-03-08T13:08:09;14.23;;;12.77;;
16667;SDS011;8447;52.630;4.734;2024-03-08T13:10:38;13.38;;;12.10;;
16667;SDS011;8447;52.630;4.734;2024-03-08T13:13:05;16.45;;;13.63;;
16667;SDS011;8447;52.630;4.734;2024-03-08T13:15:31;13.57;;;12.18;;
16667;SDS011;8447;52.630;4.734;2024-03-08T13:17:58;14.32;;;12.90;;
16667;SDS011;8447;52.630;4.734;2024-03-08T13:20:25;13.30;;;11.93;;
16667;SDS011;8447;52.630;4.734;2024-03-08T13:22:53;15.27;;;13.63;;
16667;SDS011;8447;52.630;4.734;2024-03-08T13:25:21;15.65;;;14.10;;
16667;SDS011;8447;52.630;4.734;2024-03-08T13:27:49;13.88;;;12.43;;
16667;SDS011;8447;52.630;4.734;2024-03-08T13:30:15;15.18;;;12.50;;
16667;SDS011;8447;52.630;4.734;2024-03-08T13:32:43;13.57;;;12.18;;
16667;SDS011;8447;52.630;4.734;2024-03-08T13:35:10;14.48;;;12.95;;
16667;SDS011;8447;52.630;4.734;2024-03-08T13:37:38;14.57;;;13.07;;
16667;SDS011;8447;52.630;4.734;2024-03-08T13:40:05;14.70;;;13.23;;
16667;SDS011;8447;52.630;4.734;2024-03-08T13:42:37;17.75;;;14.40;;
16667;SDS011;8447;52.630;4.734;2024-03-08T13:45:04;19.38;;;13.90;;
16667;SDS011;8447;52.630;4.734;2024-03-08T13:47:32;16.02;;;13.50;;
16667;SDS011;8447;52.630;4.734;2024-03-08T13:49:59;14.15;;;12.75;;
16667;SDS011;8447;52.630;4.734;2024-03-08T13:52:25;15.55;;;13.27;;
16667;SDS011;8447;52.630;4.734;2024-03-08T13:54:54;15.32;;;12.95;;
16667;SDS011;8447;52.630;4.734;2024-03-08T13:57:21;16.13;;;12.75;;
16667;SDS011;8447;52.630;4.734;2024-03-08T13:59:49;13.40;;;11.37;;
16667;SDS011;8447;52.630;4.734;2024-03-08T14:02:16;16.35;;;14.65;;
16667;SDS011;8447;52.630;4.734;2024-03-08T14:04:42;15.80;;;13.23;;
16667;SDS011;8447;52.630;4.734;2024-03-08T14:07:09;16.90;;;13.77;;
16667;SDS011;8447;52.630;4.734;2024-03-08T14:09:36;15.17;;;13.23;;
16667;SDS011;8447;52.630;4.734;2024-03-08T14:12:08;15.63;;;13.95;;
16667;SDS011;8447;52.630;4.734;2024-03-08T14:14:35;15.50;;;12.73;;
16667;SDS011;8447;52.630;4.734;2024-03-08T14:17:03;15.17;;;13.67;;
16667;SDS011;8447;52.630;4.734;2024-03-08T14:19:31;16.77;;;14.43;;
16667;SDS011;8447;52.630;4.734;2024-03-08T14:21:59;16.13;;;13.87;;
16667;SDS011;8447;52.630;4.734;2024-03-08T14:24:25;15.27;;;12.63;;
16667;SDS011;8447;52.630;4.734;2024-03-08T14:26:52;16.23;;;14.00;;
16667;SDS011;8447;52.630;4.734;2024-03-08T14:29:18;15.93;;;12.07;;
16667;SDS011;8447;52.630;4.734;2024-03-08T14:31:45;15.93;;;12.53;;
16667;SDS011;8447;52.630;4.734;2024-03-08T14:34:12;17.40;;;12.00;;
16667;SDS011;8447;52.630;4.734;2024-03-08T14:36:39;15.45;;;13.70;;